Latest Weather Observations for Trangie

IDN60801

Issued at 10:02 pm EST Thursday 28 May 2015 (issued every 30 minutes, with the page automatically refreshed every 10 minutes)

About weather observations | Map of weather stations | Latest weather observations for NSW | Other Formats
Station Details ID: 051049 Name: TRANGIE RESEARCH STATION AWS Lat: -31.99 Lon: 147.95 Height: 215.0 m
Data from the previous 72 hours. | See also: Recent months at Trangie
Date/Time
EST
Temp
°C
App
Temp
°C
Dew
Point
Rel
Hum
%
Delta-T
°C
Wind Press
QNH
hPa
Press
MSL
hPa
Rain
since 9 am
mm
Dir
 
Spd
km/h
Gust
km/h
Spd
kts
Gust
kts
28/10:00pm 15.3 15.1 13.1 87 1.2 NE 6 7 3 4 1022.1 1022.0 0.2
28/09:30pm 15.5 15.4 13.2 86 1.3 NE 6 7 3 4 1022.1 1022.0 0.2
28/09:00pm 15.6 15.5 13.3 86 1.3 NE 6 9 3 5 1022.3 1022.3 0.2
28/08:30pm 15.7 15.6 13.4 86 1.3 NE 6 9 3 5 1022.0 1021.9 0.2
28/08:00pm 15.8 15.2 13.5 86 1.3 NE 9 11 5 6 1021.8 1021.7 0.2
28/07:30pm 15.7 15.4 13.4 86 1.3 NE 7 9 4 5 1022.1 1022.0 0.2
28/07:00pm 15.9 16.1 13.2 84 1.5 NE 4 7 2 4 1022.0 1021.9 0.2
28/06:30pm 16.0 16.5 12.9 82 1.7 ENE 2 7 1 4 1021.8 1021.7 0.2
28/06:00pm 16.8 16.3 12.7 77 2.3 N 7 9 4 5 1021.8 1021.7 0.2
28/05:30pm 16.9 16.4 12.6 76 2.4 N 7 11 4 6 1021.5 1021.4 0.2
28/05:00pm 17.6 16.7 12.7 73 2.7 N 9 13 5 7 1021.6 1021.5 0.0
28/04:30pm 18.0 17.6 12.9 72 2.9 NNE 7 11 4 6 1021.3 1021.2 0.0
28/04:00pm 18.5 17.3 12.9 70 3.2 N 11 15 6 8 1021.7 1021.6 0.0
28/03:30pm 18.6 16.9 12.4 67 3.5 N 13 20 7 11 1021.5 1021.4 0.0
28/03:00pm 18.6 16.6 12.8 69 3.3 NNW 15 20 8 11 1021.5 1021.4 0.0
28/02:30pm 18.1 16.3 13.2 73 2.8 NNW 15 20 8 11 1021.6 1021.5 0.0
28/02:00pm 18.8 16.1 13.0 69 3.3 NNW 19 26 10 14 1021.5 1021.4 0.0
28/01:30pm 18.8 16.2 13.2 70 3.2 NNW 19 26 10 14 1022.0 1021.9 0.0
28/01:00pm 18.2 16.0 13.3 73 2.8 NNW 17 20 9 11 1022.5 1022.5 0.0
28/12:30pm 17.9 15.4 13.4 75 2.6 NNW 19 24 10 13 1023.2 1023.1 0.0
28/12:00pm 17.4 16.0 13.3 77 2.3 N 13 19 7 10 1023.6 1023.5 0.0
28/11:30am 16.9 15.8 13.2 79 2.1 N 11 17 6 9 1023.9 1023.8 0.0
28/11:00am 16.7 15.7 13.4 81 1.9 N 11 15 6 8 1024.2 1024.1 0.0
28/10:30am 16.6 15.2 13.5 82 1.8 N 13 19 7 10 1024.4 1024.3 0.0
28/10:00am 16.1 15.2 13.8 86 1.3 N 11 17 6 9 1024.5 1024.4 0.0
28/09:30am 15.4 15.0 14.1 92 0.7 NNE 9 15 5 8 1024.7 1024.6 0.0
28/09:00am 14.8 14.8 14.2 96 0.3 NNE 7 9 4 5 1024.6 1024.5 0.0
28/08:30am 14.4 14.4 14.1 98 0.2 NE 7 11 4 6 1024.0 1023.9 0.0
28/08:00am 14.0 14.1 13.8 99 0.1 ENE 6 9 3 5 1023.7 1023.6 0.0
28/07:30am 13.0 12.5 12.8 99 0.1 ENE 7 11 4 6 1023.4 1023.3 0.0
28/07:00am 13.0 12.5 12.8 99 0.1 E 7 9 4 5 1023.4 1023.3 0.0
28/06:30am 13.0 13.9 12.8 99 0.1 CALM 0 0 0 0 1023.3 1023.2 0.0
28/06:00am 13.1 12.3 12.9 99 0.1 ENE 9 11 5 6 1022.5 1022.5 0.0
28/05:30am 13.2 12.8 13.0 99 0.1 ENE 7 9 4 5 1022.4 1022.4 0.0
28/05:00am 13.5 13.2 13.3 99 0.1 ENE 7 9 4 5 1022.4 1022.4 0.0
28/04:30am 13.4 14.4 13.2 99 0.1 CALM 0 0 0 0 1022.5 1022.5 0.0
28/04:00am 13.4 14.4 13.2 99 0.1 CALM 0 0 0 0 1022.7 1022.7 0.0
28/03:30am 13.1 12.9 12.9 99 0.1 E 6 6 3 3 1022.6 1022.6 0.0
28/03:00am 13.2 14.1 12.9 98 0.2 CALM 0 0 0 0 1022.8 1022.8 0.0
28/02:30am 13.1 12.8 12.6 97 0.3 NE 6 7 3 4 1022.9 1022.9 0.0
28/02:00am 13.5 13.2 12.7 95 0.4 NNE 6 7 3 4 1023.1 1023.0 0.0
28/01:30am 13.8 13.4 12.5 92 0.7 N 6 9 3 5 1023.3 1023.2 0.0
28/01:00am 14.0 13.4 12.2 89 1.0 NE 7 9 4 5 1023.2 1023.1 0.0
28/12:30am 13.9 13.2 12.1 89 1.0 NE 7 9 4 5 1023.5 1023.4 0.0
28/12:00am 13.8 13.3 12.0 89 1.0 E 6 7 3 4 1023.4 1023.3 0.0
 
Date/Time
EST
Temp
°C
App
Temp
°C
Dew
Point
Rel
Hum
%
Delta-T
°C
Wind Press
QNH
hPa
Press
MSL
hPa
Rain
since 9 am
mm
Dir
 
Spd
km/h
Gust
km/h
Spd
kts
Gust
kts
27/11:30pm 13.9 13.4 12.1 89 1.0 ESE 6 7 3 4 1023.7 1023.6 0.0
27/11:00pm 13.7 13.3 12.3 91 0.8 ESE 6 9 3 5 1023.6 1023.5 0.0
27/10:30pm 13.7 13.3 12.3 91 0.8 SE 6 7 3 4 1023.5 1023.4 0.0
27/10:00pm 14.0 13.6 12.4 90 0.9 SE 6 9 3 5 1023.6 1023.5 0.0
27/09:30pm 13.9 13.5 12.3 90 0.9 SE 6 7 3 4 1023.6 1023.5 0.0
27/09:00pm 14.6 13.9 12.1 85 1.4 NE 7 11 4 6 1023.3 1023.2 0.0
27/08:30pm 14.8 14.1 12.1 84 1.5 NE 7 9 4 5 1023.5 1023.4 0.0
27/08:00pm 14.9 14.4 12.6 86 1.3 NE 7 9 4 5 1023.5 1023.4 0.0
27/07:30pm 14.6 14.2 13.0 90 0.9 NE 7 7 4 4 1023.8 1023.7 0.0
27/07:00pm 14.6 14.4 13.1 91 0.8 ESE 6 7 3 4 1023.5 1023.4 0.0
27/06:30pm 14.7 15.7 13.1 90 0.9 CALM 0 6 0 3 1023.5 1023.4 0.0
27/06:00pm 15.0 15.8 12.7 86 1.3 CALM 0 0 0 0 1023.4 1023.3 0.0
27/05:30pm 15.2 14.9 12.7 85 1.4 SSE 6 7 3 4 1023.4 1023.3 0.0
27/05:00pm 15.4 16.3 12.9 85 1.4 CALM 0 0 0 0 1023.1 1023.0 0.0
27/04:30pm 15.9 16.7 12.5 80 1.9 CALM 0 0 0 0 1022.8 1022.8 0.0
27/04:00pm 16.2 16.5 12.2 77 2.2 NE 2 6 1 3 1023.1 1023.0 0.0
27/03:30pm 16.5 17.3 12.5 77 2.2 CALM 0 0 0 0 1023.2 1023.1 0.0
27/03:00pm 16.6 17.0 12.6 77 2.2 NNE 2 7 1 4 1023.1 1023.0 0.0
27/02:30pm 16.5 15.8 12.1 75 2.4 NE 7 9 4 5 1023.2 1023.1 0.0
27/02:00pm 16.6 15.6 12.2 75 2.4 ENE 9 13 5 7 1023.2 1023.1 0.0
27/01:30pm 16.3 15.7 11.7 74 2.5 E 6 9 3 5 1023.9 1023.8 0.0
27/01:00pm 16.2 15.4 11.6 74 2.5 ENE 7 11 4 6 1024.0 1023.9 0.0
27/12:30pm 16.4 15.8 11.6 73 2.6 NE 6 7 3 4 1024.6 1024.5 0.0
27/12:00pm 16.0 15.1 11.2 73 2.6 E 7 11 4 6 1025.2 1025.1 0.0
27/11:30am 15.7 14.7 10.9 73 2.6 NE 7 11 4 6 1025.7 1025.6 0.0
27/11:00am 15.1 13.9 10.3 73 2.5 NNE 7 13 4 7 1026.0 1025.9 0.0
27/10:30am 15.0 13.7 11.2 78 2.0 NE 9 13 5 7 1025.9 1025.8 0.0
27/10:00am 14.2 13.3 11.4 83 1.5 ENE 7 9 4 5 1026.1 1026.0 0.0
27/09:30am 12.6 11.7 10.7 88 1.0 ENE 6 9 3 5 1026.1 1026.0 0.0
27/09:00am 12.0 10.8 10.4 90 0.8 ENE 7 9 4 5 1025.8 1025.7 0.0
27/08:30am 11.2 9.5 9.8 91 0.7 E 9 11 5 6 1025.7 1025.6 0.0
27/08:00am 10.3 8.5 9.5 95 0.4 E 9 15 5 8 1025.1 1025.0 0.0
27/07:30am 8.7 7.1 8.6 99 0.0 ENE 7 9 4 5 1025.4 1025.3 0.0
27/07:00am 8.2 6.4 8.1 99 0.0 E 7 9 4 5 1024.8 1024.7 0.0
27/06:30am 8.2 6.4 8.1 99 0.0 E 7 9 4 5 1024.8 1024.7 0.0
27/06:00am 8.3 6.1 8.0 98 0.1 E 9 11 5 6 1024.5 1024.4 0.0
27/05:30am 8.4 6.3 8.1 98 0.1 E 9 13 5 7 1024.4 1024.3 0.0
27/05:00am 8.6 6.9 8.2 97 0.2 E 7 11 4 6 1024.5 1024.4 0.0
27/04:30am 9.2 7.2 8.7 97 0.2 E 9 11 5 6 1024.4 1024.3 0.0
27/04:00am 9.3 7.8 9.0 98 0.1 E 7 11 4 6 1024.4 1024.3 0.0
27/03:30am 9.4 7.6 9.3 99 0.1 E 9 11 5 6 1024.7 1024.6 0.0
27/03:00am 8.9 7.3 8.8 99 0.0 E 7 11 4 6 1025.0 1024.9 0.0
27/02:30am 7.8 7.3 7.7 99 0.0 CALM 0 0 0 0 1025.4 1025.3 0.0
27/02:00am 7.7 6.0 7.6 99 0.0 ESE 6 9 3 5 1025.2 1025.1 0.0
27/01:30am 6.7 4.7 6.3 97 0.2 E 6 13 3 7 1025.5 1025.4 0.0
27/01:00am 8.1 6.3 7.8 98 0.1 NNE 7 9 4 5 1025.7 1025.6 0.0
27/12:30am 8.2 7.7 7.8 97 0.2 CALM 0 0 0 0 1026.0 1025.9 0.0
27/12:00am 8.9 8.4 8.0 94 0.4 CALM 0 0 0 0 1026.0 1025.9 0.0
 
Date/Time
EST
Temp
°C
App
Temp
°C
Dew
Point
Rel
Hum
%
Delta-T
°C
Wind Press
QNH
hPa
Press
MSL
hPa
Rain
since 9 am
mm
Dir
 
Spd
km/h
Gust
km/h
Spd
kts
Gust
kts
26/11:30pm 9.9 9.6 8.7 92 0.6 CALM 0 0 0 0 1026.1 1026.0 0.0
26/11:00pm 10.9 9.8 8.5 85 1.2 ENE 4 7 2 4 1026.3 1026.3 0.0
26/10:30pm 11.8 10.5 9.2 84 1.3 ESE 6 7 3 4 1026.4 1026.4 0.0
26/10:00pm 11.2 11.0 9.1 87 1.1 CALM 0 0 0 0 1026.4 1026.4 0.0
26/09:30pm 11.2 10.3 9.1 87 1.1 ESE 4 7 2 4 1026.3 1026.3 0.0
26/09:00pm 11.3 10.4 9.2 87 1.1 E 4 6 2 3 1026.4 1026.4 0.0
26/08:30pm 12.4 11.0 9.4 82 1.5 E 7 9 4 5 1026.6 1026.6 0.0
26/08:00pm 12.8 11.5 9.8 82 1.5 E 7 11 4 6 1026.6 1026.6 0.0
26/07:30pm 12.6 11.5 10.0 84 1.3 E 6 9 3 5 1026.5 1026.5 0.0
26/07:00pm 12.3 11.2 10.0 86 1.2 E 6 9 3 5 1026.5 1026.5 0.0
26/06:30pm 12.8 12.1 10.2 84 1.4 SE 4 7 2 4 1026.4 1026.4 0.0
26/06:00pm 12.8 12.8 9.8 82 1.5 CALM 0 0 0 0 1026.7 1026.7 0.0
26/05:30pm 14.0 14.2 10.4 79 1.9 CALM 0 0 0 0 1026.4 1026.4 0.0
26/05:00pm 14.7 14.8 10.1 74 2.4 CALM 0 0 0 0 1026.6 1026.6 0.0
26/04:30pm 15.7 14.9 10.9 73 2.6 ESE 6 7 3 4 1026.2 1026.2 0.0
26/04:00pm 16.1 15.8 10.2 68 3.1 E 2 6 1 3 1026.2 1026.2 0.0
26/03:30pm 16.2 16.0 10.5 69 3.1 N 2 7 1 4 1026.4 1026.4 0.0
26/03:00pm 16.2 14.9 9.8 66 3.4 ENE 7 9 4 5 1026.2 1026.2 0.0
26/02:30pm 16.3 14.9 9.7 65 3.5 ENE 7 9 4 5 1026.4 1026.4 0.0
26/02:00pm 16.4 15.3 10.5 68 3.1 NE 7 11 4 6 1027.0 1027.0 0.0
26/01:30pm 15.7 15.0 11.5 76 2.3 SE 6 7 3 4 1027.5 1027.5 0.0
26/01:00pm 15.4 15.1 11.6 78 2.1 E 4 7 2 4 1027.7 1027.7 0.0
26/12:30pm 15.2 14.5 11.4 78 2.1 ESE 6 9 3 5 1028.0 1027.9 0.0
26/12:00pm 14.8 14.2 11.6 81 1.7 E 6 9 3 5 1028.6 1028.5 0.0
26/11:30am 14.1 13.4 11.4 84 1.5 ENE 6 7 3 4 1029.4 1029.3 0.0
26/11:00am 13.7 12.9 10.9 83 1.5 ENE 6 9 3 5 1029.7 1029.6 0.0
26/10:30am 13.2 12.2 11.1 87 1.1 ESE 7 11 4 6 1029.7 1029.6 0.0
26/10:00am 12.3 11.1 10.2 87 1.1 ESE 7 11 4 6 1030.0 1029.9 0.0
26/09:30am 11.4 10.0 9.5 88 1.0 ESE 7 13 4 7 1030.3 1030.3 0.0
26/09:00am 10.6 9.2 9.5 93 0.6 ESE 7 11 4 6 1030.0 1029.9 0.0
26/08:30am 9.8 8.2 8.9 94 0.4 E 7 9 4 5 1030.0 1029.9 0.0
26/08:00am 9.3 7.7 8.7 96 0.3 ESE 7 11 4 6 1029.7 1029.6 0.0
26/07:30am 9.1 7.1 8.5 96 0.3 E 9 11 5 6 1029.4 1029.3 0.0
26/07:00am 8.8 7.1 8.2 96 0.3 E 7 11 4 6 1029.2 1029.1 0.0
26/06:30am 8.6 6.9 8.2 97 0.2 E 7 9 4 5 1029.0 1028.9 0.0
26/06:00am 8.5 6.8 8.2 98 0.1 E 7 11 4 6 1028.9 1028.8 0.0
26/05:30am 8.1 6.3 7.8 98 0.1 E 7 11 4 6 1028.4 1028.3 0.0
26/05:00am 7.5 5.6 7.4 99 0.0 ESE 7 11 4 6 1028.3 1028.2 0.0
26/04:30am 8.2 6.4 8.1 99 0.0 E 7 9 4 5 1028.5 1028.4 0.0
26/04:00am 8.4 6.7 8.3 99 0.0 E 7 9 4 5 1028.3 1028.2 0.0
26/03:30am 6.7 4.8 6.6 99 0.0 ESE 6 7 3 4 1028.6 1028.5 0.0
26/03:00am 6.2 4.2 6.1 99 0.0 ESE 6 7 3 4 1028.9 1028.8 0.0
26/02:30am 6.8 4.9 6.7 99 0.0 E 6 6 3 3 1029.1 1029.0 0.0
26/02:00am 7.1 6.4 6.8 98 0.1 CALM 0 0 0 0 1029.3 1029.2 0.0
26/01:30am 6.8 5.9 6.1 95 0.3 CALM 0 0 0 0 1029.2 1029.1 0.0
26/01:00am 7.4 5.4 6.2 92 0.5 NE 6 6 3 3 1029.7 1029.6 0.0
26/12:30am 8.8 7.1 7.6 92 0.6 ESE 6 7 3 4 1029.7 1029.6 0.0
26/12:00am 9.4 7.8 8.0 91 0.7 E 6 7 3 4 1029.6 1029.5 0.0
 
Date/Time
EST
Temp
°C
App
Temp
°C
Dew
Point
Rel
Hum
%
Delta-T
°C
Wind Press
QNH
hPa
Press
MSL
hPa
Rain
since 9 am
mm
Dir
 
Spd
km/h
Gust
km/h
Spd
kts
Gust
kts
25/11:30pm 9.9 9.2 8.5 91 0.7 ENE 2 6 1 3 1030.1 1030.0 0.0
25/11:00pm 9.5 9.0 7.9 90 0.8 CALM 0 0 0 0 1030.4 1030.4 0.0
25/10:30pm 10.4 10.0 8.3 87 1.0 CALM 0 0 0 0 1030.2 1030.2 0.0

Other Formats:

Comma delimited format used in spreadsheet applications
http://www.bom.gov.au/fwo/IDN60801/IDN60801.95710.axf

JavaScript Object Notation format (JSON) in row-major order
http://www.bom.gov.au/fwo/IDN60801/IDN60801.95710.json